createdAt,value
2019-01-25T00:02:03.434Z,-4.44
2019-01-25T00:04:31.490Z,-4.65
2019-01-25T00:06:59.611Z,-4.18
2019-01-25T00:09:27.657Z,-3.70
2019-01-25T00:11:55.756Z,-4.06
2019-01-25T00:14:23.812Z,-4.32
2019-01-25T00:16:52.519Z,-4.37
2019-01-25T00:19:20.558Z,-4.07
2019-01-25T00:21:48.630Z,-4.35
2019-01-25T00:24:16.751Z,-4.36
2019-01-25T00:26:47.081Z,-3.92
2019-01-25T00:29:15.143Z,-4.36
2019-01-25T00:31:43.196Z,-4.58
2019-01-25T00:34:11.211Z,-3.85
2019-01-25T00:36:39.279Z,-4.19
2019-01-25T00:39:08.459Z,-3.77
2019-01-25T00:41:36.529Z,-3.65
2019-01-25T00:44:04.536Z,-3.62
2019-01-25T00:46:34.271Z,-3.73
2019-01-25T00:49:02.266Z,-3.68
2019-01-25T00:51:30.325Z,-3.83
2019-01-25T00:53:58.403Z,-4.04
2019-01-25T00:56:26.449Z,-3.95
2019-01-25T00:58:54.537Z,-3.83
2019-01-25T01:01:22.796Z,-4.12
2019-01-25T01:03:50.882Z,-4.11
2019-01-25T01:06:18.925Z,-4.29
2019-01-25T01:08:47.016Z,-4.54
2019-01-25T01:11:15.062Z,-4.14
2019-01-25T01:13:43.142Z,-4.10
2019-01-25T01:16:13.294Z,-4.05
2019-01-25T01:18:42.208Z,-4.15
2019-01-25T01:21:10.248Z,-3.79
2019-01-25T01:23:38.297Z,-3.63
2019-01-25T01:26:06.688Z,-3.50
2019-01-25T01:28:34.738Z,-3.47
2019-01-25T01:31:02.816Z,-3.64
2019-01-25T01:33:30.817Z,-3.84
2019-01-25T01:35:58.873Z,-3.71
2019-01-25T01:38:26.855Z,-4.10
2019-01-25T01:40:54.929Z,-3.95
2019-01-25T01:43:22.921Z,-4.49
2019-01-25T01:45:50.999Z,-4.79
2019-01-25T01:48:19.027Z,-4.68
2019-01-25T01:50:47.038Z,-4.81
2019-01-25T01:53:15.356Z,-4.82
2019-01-25T01:55:43.428Z,-4.70
2019-01-25T01:58:11.382Z,-4.26
2019-01-25T02:00:39.354Z,-4.26
2019-01-25T02:03:07.404Z,-4.13
2019-01-25T02:05:35.405Z,-4.61
2019-01-25T02:08:03.466Z,-4.24
2019-01-25T02:10:31.476Z,-4.56
2019-01-25T02:12:59.552Z,-4.65
2019-01-25T02:15:27.624Z,-4.73
2019-01-25T02:17:55.656Z,-4.86
2019-01-25T02:20:25.948Z,-4.99
2019-01-25T02:22:54.008Z,-4.71
2019-01-25T02:25:22.088Z,-4.77
2019-01-25T02:27:50.190Z,-4.51
2019-01-25T02:30:20.197Z,-4.75
2019-01-25T02:32:48.712Z,-4.45
2019-01-25T02:35:16.625Z,-4.62
2019-01-25T02:37:44.716Z,-4.45
2019-01-25T02:40:14.111Z,-4.90
2019-01-25T02:42:42.143Z,-4.77
2019-01-25T02:45:11.239Z,-4.54
2019-01-25T02:47:39.266Z,-4.83
2019-01-25T02:50:09.983Z,-4.28
2019-01-25T02:52:37.887Z,-4.57
2019-01-25T02:55:06.582Z,-4.36
2019-01-25T02:57:34.605Z,-4.15
2019-01-25T03:00:02.679Z,-4.62
2019-01-25T03:02:30.643Z,-4.87
2019-01-25T03:04:58.716Z,-4.29
2019-01-25T03:07:26.768Z,-4.32
2019-01-25T03:09:54.842Z,-4.13
2019-01-25T03:12:22.882Z,-4.28
2019-01-25T03:14:53.068Z,-4.13
2019-01-25T03:17:21.100Z,-4.17
2019-01-25T03:19:49.166Z,-4.35
2019-01-25T03:22:17.338Z,-4.45
2019-01-25T03:24:45.416Z,-4.65
2019-01-25T03:27:13.516Z,-4.49
2019-01-25T03:29:41.862Z,-4.16
2019-01-25T03:32:09.862Z,-4.15
2019-01-25T03:34:38.038Z,-4.26
2019-01-25T03:37:06.081Z,-4.70
2019-01-25T03:39:34.092Z,-4.42
2019-01-25T03:42:02.154Z,-4.71
2019-01-25T03:44:31.599Z,-4.58
2019-01-25T03:46:59.658Z,-4.36
2019-01-25T03:49:27.679Z,-4.11
2019-01-25T03:51:55.745Z,-4.11
2019-01-25T03:54:23.715Z,-4.64
2019-01-25T03:56:51.765Z,-4.39
2019-01-25T03:59:19.793Z,-4.63
2019-01-25T04:01:47.855Z,-4.37
2019-01-25T04:04:15.885Z,-4.25
2019-01-25T04:06:43.901Z,-4.15
2019-01-25T04:09:11.939Z,-4.10
2019-01-25T04:11:39.989Z,-4.10
2019-01-25T04:14:08.025Z,-4.12
2019-01-25T04:16:36.158Z,-4.24
2019-01-25T04:19:04.237Z,-4.43
2019-01-25T04:21:32.318Z,-4.30
2019-01-25T04:24:00.306Z,-4.31
2019-01-25T04:26:28.354Z,-4.16
2019-01-25T04:28:58.252Z,-4.33
2019-01-25T04:31:26.365Z,-4.22
2019-01-25T04:33:54.406Z,-4.63
2019-01-25T04:36:22.472Z,-4.57
2019-01-25T04:38:50.560Z,-4.34
2019-01-25T04:41:18.651Z,-4.15
2019-01-25T04:43:46.713Z,-4.40
2019-01-25T04:46:14.810Z,-4.92
2019-01-25T04:48:42.807Z,-5.02
2019-01-25T04:51:10.868Z,-4.88
2019-01-25T04:53:38.904Z,-4.81
2019-01-25T04:56:06.924Z,-5.16
2019-01-25T04:58:35.001Z,-4.64
2019-01-25T05:01:10.534Z,-4.46
2019-01-25T05:03:38.481Z,-4.78
2019-01-25T05:06:07.366Z,-4.66
2019-01-25T05:08:35.342Z,-4.66
2019-01-25T05:11:03.375Z,-5.04
2019-01-25T05:13:31.768Z,-4.64
2019-01-25T05:16:01.168Z,-4.46
2019-01-25T05:18:29.182Z,-4.43
2019-01-25T05:20:57.216Z,-4.55
2019-01-25T05:23:25.305Z,-4.60
2019-01-25T05:25:53.413Z,-4.42
2019-01-25T05:28:21.478Z,-4.53
2019-01-25T05:31:00.474Z,-4.39
2019-01-25T05:33:28.531Z,-4.40
2019-01-25T05:35:56.535Z,-4.39
2019-01-25T05:38:24.616Z,-4.40
2019-01-25T05:40:52.662Z,-4.76
2019-01-25T05:43:20.686Z,-4.92
2019-01-25T05:45:48.719Z,-4.69
2019-01-25T05:48:16.735Z,-4.85
2019-01-25T05:50:44.794Z,-5.41
2019-01-25T05:53:12.819Z,-5.01
2019-01-25T05:55:40.968Z,-4.90
2019-01-25T05:58:09.018Z,-5.33
2019-01-25T06:00:39.509Z,-5.41
2019-01-25T06:03:15.031Z,-4.86
2019-01-25T06:05:43.081Z,-4.89
2019-01-25T06:08:29.218Z,-5.01
2019-01-25T06:10:57.946Z,-4.72
2019-01-25T06:13:25.996Z,-4.53
2019-01-25T06:15:54.078Z,-4.34
2019-01-25T06:18:22.082Z,-4.45
2019-01-25T06:20:52.784Z,-4.35
2019-01-25T06:23:20.830Z,-4.32
2019-01-25T06:25:52.892Z,-4.23
2019-01-25T06:28:20.870Z,-4.31
2019-01-25T06:30:48.871Z,-4.98
2019-01-25T06:33:16.977Z,-5.16
2019-01-25T06:35:45.104Z,-4.99
2019-01-25T06:38:13.093Z,-5.03
2019-01-25T06:40:41.259Z,-4.45
2019-01-25T06:43:09.266Z,-4.46
2019-01-25T06:45:37.248Z,-4.42
2019-01-25T06:48:05.302Z,-4.50
2019-01-25T06:50:33.321Z,-4.53
2019-01-25T06:53:01.381Z,-4.85
2019-01-25T06:55:29.368Z,-5.14
2019-01-25T06:58:22.223Z,-5.25
2019-01-25T07:01:09.263Z,-5.03
2019-01-25T07:03:37.280Z,-4.82
2019-01-25T07:06:05.275Z,-4.78
2019-01-25T07:08:33.325Z,-4.69
2019-01-25T07:11:01.330Z,-4.67
2019-01-25T07:13:29.344Z,-4.32
2019-01-25T07:15:57.458Z,-4.25
2019-01-25T07:18:25.668Z,-4.25
2019-01-25T07:20:53.760Z,-4.34
2019-01-25T07:23:21.806Z,-4.37
2019-01-25T07:25:49.812Z,-4.75
2019-01-25T07:28:17.802Z,-4.84
2019-01-25T07:30:45.822Z,-4.70
2019-01-25T07:33:13.892Z,-4.45
2019-01-25T07:35:41.954Z,-4.40
2019-01-25T07:38:09.942Z,-4.42
2019-01-25T07:40:38.034Z,-4.49
2019-01-25T07:43:06.090Z,-4.58
2019-01-25T07:45:34.198Z,-4.60
2019-01-25T07:48:02.229Z,-4.52
2019-01-25T07:50:30.220Z,-4.83
2019-01-25T07:52:58.300Z,-4.64
2019-01-25T07:55:26.606Z,-4.64
2019-01-25T07:57:54.632Z,-4.77
2019-01-25T08:00:22.640Z,-4.68
2019-01-25T08:02:50.669Z,-4.84
2019-01-25T08:05:18.668Z,-5.04
2019-01-25T08:07:46.773Z,-5.13
2019-01-25T08:10:16.140Z,-5.14
2019-01-25T08:12:44.192Z,-4.79
2019-01-25T08:15:14.792Z,-4.74
2019-01-25T08:17:42.859Z,-4.57
2019-01-25T08:20:11.185Z,-4.76
2019-01-25T08:22:39.241Z,-4.50
2019-01-25T08:25:13.213Z,-5.10
2019-01-25T08:27:41.357Z,-4.73
2019-01-25T08:30:11.693Z,-4.48
2019-01-25T08:32:39.673Z,-4.95
2019-01-25T08:35:09.367Z,-4.52
2019-01-25T08:37:37.362Z,-4.77
2019-01-25T08:40:05.737Z,-4.63
2019-01-25T08:42:33.815Z,-4.63
2019-01-25T08:45:01.958Z,-4.64
2019-01-25T08:47:29.994Z,-4.70
2019-01-25T08:49:58.342Z,-4.51
2019-01-25T08:52:26.729Z,-4.32
2019-01-25T08:54:54.750Z,-4.33
2019-01-25T08:57:22.813Z,-4.45
2019-01-25T08:59:50.869Z,-4.31
2019-01-25T09:02:18.874Z,-4.46
2019-01-25T09:04:46.891Z,-4.21
2019-01-25T09:07:14.894Z,-4.18
2019-01-25T09:09:42.995Z,-4.23
2019-01-25T09:12:11.014Z,-4.20
2019-01-25T09:14:39.133Z,-4.52
2019-01-25T09:17:07.177Z,-4.64
2019-01-25T09:19:35.378Z,-4.33
2019-01-25T09:22:03.377Z,-4.43
2019-01-25T09:24:31.400Z,-4.36
2019-01-25T09:26:59.517Z,-4.73
2019-01-25T09:29:27.519Z,-4.61
2019-01-25T09:31:55.622Z,-4.55
2019-01-25T09:34:23.657Z,-4.62
2019-01-25T09:36:51.742Z,-4.37
2019-01-25T09:39:19.830Z,-4.66
2019-01-25T09:41:47.844Z,-4.64
2019-01-25T09:44:15.940Z,-4.39
2019-01-25T09:46:43.953Z,-4.71
2019-01-25T09:49:12.062Z,-5.07
2019-01-25T09:51:40.163Z,-4.54
2019-01-25T09:54:08.266Z,-4.32
2019-01-25T09:56:36.377Z,-4.34
2019-01-25T09:59:04.585Z,-4.79
2019-01-25T10:01:32.553Z,-4.84
2019-01-25T10:04:00.631Z,-4.25
2019-01-25T10:06:28.755Z,-4.36
2019-01-25T10:08:56.869Z,-4.22
2019-01-25T10:11:24.936Z,-4.63
2019-01-25T10:13:52.928Z,-4.55
2019-01-25T10:16:21.005Z,-4.23
2019-01-25T10:18:49.076Z,-4.20
2019-01-25T10:21:17.127Z,-3.95
2019-01-25T10:23:45.155Z,-4.38
2019-01-25T10:26:13.228Z,-4.06
2019-01-25T10:28:41.305Z,-3.91
2019-01-25T10:31:09.372Z,-4.05
2019-01-25T10:33:37.438Z,-3.90
2019-01-25T10:36:05.487Z,-4.17
2019-01-25T10:38:33.562Z,-4.12
2019-01-25T10:41:01.595Z,-3.89
2019-01-25T10:43:29.637Z,-3.65
2019-01-25T10:45:57.708Z,-3.59
2019-01-25T10:48:25.696Z,-3.68
2019-01-25T10:50:53.687Z,-4.03
2019-01-25T10:53:21.755Z,-4.07
2019-01-25T10:55:49.750Z,-3.94
2019-01-25T10:58:17.771Z,-3.70
2019-01-25T11:00:45.805Z,-3.95
2019-01-25T11:03:13.814Z,-3.68
2019-01-25T11:05:41.835Z,-3.72
2019-01-25T11:08:09.877Z,-3.71
2019-01-25T11:10:37.884Z,-3.85
2019-01-25T11:13:05.887Z,-4.11
2019-01-25T11:15:33.921Z,-4.07
2019-01-25T11:18:01.999Z,-3.77
2019-01-25T11:20:30.006Z,-3.55
2019-01-25T11:22:58.105Z,-3.65
2019-01-25T11:25:28.672Z,-3.15
2019-01-25T11:27:56.736Z,-3.19
2019-01-25T11:30:24.727Z,-2.96
2019-01-25T11:32:52.821Z,-2.88
2019-01-25T11:35:20.922Z,-2.93
2019-01-25T11:37:48.997Z,-2.71
2019-01-25T11:40:20.113Z,-3.04
2019-01-25T11:42:48.133Z,-2.94
2019-01-25T11:45:16.244Z,-2.85
2019-01-25T11:47:44.331Z,-2.61
2019-01-25T11:50:13.864Z,-2.78
2019-01-25T11:52:41.854Z,-2.50
2019-01-25T11:55:10.313Z,-2.64
2019-01-25T11:57:38.400Z,-2.35
2019-01-25T12:00:10.156Z,-2.32
2019-01-25T12:02:38.316Z,-2.43
2019-01-25T12:05:06.537Z,-2.39
2019-01-25T12:07:34.624Z,-2.18
2019-01-25T12:10:02.659Z,-2.36
2019-01-25T12:12:30.733Z,-2.50
2019-01-25T12:14:58.761Z,-2.60
2019-01-25T12:17:26.878Z,-2.09
2019-01-25T12:19:54.927Z,-2.17
2019-01-25T12:22:23.142Z,-2.03
2019-01-25T12:24:51.205Z,-1.66
2019-01-25T12:27:19.285Z,-1.53
2019-01-25T12:29:47.359Z,-2.22
2019-01-25T12:32:15.759Z,-1.56
2019-01-25T12:34:43.941Z,-1.48
2019-01-25T12:37:12.396Z,-1.53
2019-01-25T12:39:40.483Z,-1.41
2019-01-25T12:42:08.627Z,-1.49
2019-01-25T12:44:36.747Z,-1.63
2019-01-25T12:47:04.819Z,-1.59
2019-01-25T12:49:33.116Z,-1.49
2019-01-25T12:52:08.288Z,-2.17
2019-01-25T12:54:35.270Z,-1.76
2019-01-25T12:57:03.504Z,-1.49
2019-01-25T12:59:31.778Z,-1.98
2019-01-25T13:04:35.511Z,-1.35
2019-01-25T13:07:03.877Z,-1.52
2019-01-25T13:09:31.956Z,-1.24
2019-01-25T13:12:00.052Z,-1.32
2019-01-25T13:14:28.581Z,-1.15
2019-01-25T13:16:56.737Z,-1.08
2019-01-25T13:19:24.855Z,-1.37
2019-01-25T13:21:52.903Z,-1.08
2019-01-25T13:24:21.193Z,-1.11
2019-01-25T13:26:49.557Z,-1.42
2019-01-25T13:29:17.699Z,-1.48
2019-01-25T13:31:45.881Z,-2.24
2019-01-25T13:34:14.209Z,-1.77
2019-01-25T13:36:42.235Z,-1.28
2019-01-25T13:39:10.703Z,-1.24
2019-01-25T13:41:38.971Z,-1.17
2019-01-25T13:44:07.087Z,-1.04
2019-01-25T13:46:35.165Z,-1.00
2019-01-25T13:49:03.192Z,-0.97
2019-01-25T13:51:31.291Z,-1.48
2019-01-25T13:53:59.336Z,-1.20
2019-01-25T13:56:27.386Z,-2.00
2019-01-25T13:58:55.439Z,-1.49
2019-01-25T14:01:23.576Z,-1.30
2019-01-25T14:03:51.712Z,-1.11
2019-01-25T14:06:19.774Z,-1.07
2019-01-25T14:08:47.856Z,-1.01
2019-01-25T14:11:16.409Z,-1.09
2019-01-25T14:13:46.915Z,-0.94
2019-01-25T14:16:14.290Z,-1.08
2019-01-25T14:18:44.914Z,-1.11
2019-01-25T14:21:12.326Z,-1.15
2019-01-25T14:23:40.438Z,-1.31
2019-01-25T14:26:08.706Z,-1.54
2019-01-25T14:28:37.334Z,-1.21
2019-01-25T14:31:06.686Z,-1.22
2019-01-25T14:33:34.875Z,-1.30
2019-01-25T14:36:03.119Z,-1.16
2019-01-25T14:38:31.337Z,-1.03
2019-01-25T14:40:59.405Z,-0.94
2019-01-25T14:43:27.631Z,-1.28
2019-01-25T14:45:56.646Z,-1.16
2019-01-25T14:48:25.747Z,-1.22
2019-01-25T14:50:53.840Z,-1.32
2019-01-25T14:53:21.967Z,-1.15
2019-01-25T14:55:50.059Z,-1.49
2019-01-25T14:58:18.234Z,-1.47
2019-01-25T15:00:46.299Z,-1.65
2019-01-25T15:03:14.364Z,-1.64
2019-01-25T15:05:42.427Z,-1.69
2019-01-25T15:08:10.507Z,-1.28
2019-01-25T15:10:38.593Z,-1.27
2019-01-25T15:13:07.791Z,-1.30
2019-01-25T15:15:35.896Z,-1.66
2019-01-25T15:18:04.050Z,-1.55
2019-01-25T15:20:32.144Z,-1.36
2019-01-25T15:23:00.194Z,-1.25
2019-01-25T15:25:28.295Z,-1.20
2019-01-25T15:27:56.357Z,-1.22
2019-01-25T15:30:26.815Z,-1.39
2019-01-25T15:32:54.897Z,-1.45
2019-01-25T15:35:23.291Z,-1.78
2019-01-25T15:37:51.386Z,-1.50
2019-01-25T15:40:19.497Z,-1.60
2019-01-25T15:42:47.658Z,-1.63
2019-01-25T15:45:16.517Z,-1.83
2019-01-25T15:47:47.339Z,-1.72
2019-01-25T15:50:33.627Z,-2.11
2019-01-25T15:53:01.760Z,-1.74
2019-01-25T15:55:29.856Z,-1.62
2019-01-25T15:57:57.904Z,-1.38
2019-01-25T16:00:27.607Z,-1.59
2019-01-25T16:02:55.895Z,-1.86
2019-01-25T16:05:24.494Z,-1.60
2019-01-25T16:07:52.698Z,-2.06
2019-01-25T16:10:21.538Z,-2.12
2019-01-25T16:12:56.408Z,-2.23
2019-01-25T16:15:28.126Z,-1.93
2019-01-25T16:17:56.493Z,-1.88
2019-01-25T16:20:24.710Z,-1.51
2019-01-25T16:22:52.856Z,-1.42
2019-01-25T16:25:23.458Z,-1.40
2019-01-25T16:27:51.593Z,-1.41
2019-01-25T16:30:24.911Z,-1.36
2019-01-25T16:32:53.072Z,-1.43
2019-01-25T16:35:21.255Z,-1.47
2019-01-25T16:37:49.792Z,-1.64
2019-01-25T16:40:19.282Z,-1.54
2019-01-25T16:42:47.598Z,-1.76
2019-01-25T16:45:18.519Z,-1.70
2019-01-25T16:47:46.619Z,-1.89
2019-01-25T16:50:14.650Z,-1.83
2019-01-25T16:52:42.779Z,-1.83
2019-01-25T16:55:12.187Z,-2.03
2019-01-25T16:57:40.258Z,-2.10
2019-01-25T17:00:16.355Z,-2.02
2019-01-25T17:02:44.407Z,-1.76
2019-01-25T17:05:12.913Z,-1.70
2019-01-25T17:07:40.978Z,-1.80
2019-01-25T17:10:09.099Z,-1.69
2019-01-25T17:12:37.273Z,-1.68
2019-01-25T17:15:05.976Z,-2.00
2019-01-25T17:17:34.192Z,-1.90
2019-01-25T17:20:02.445Z,-1.89
2019-01-25T17:22:30.570Z,-2.14
2019-01-25T17:24:58.615Z,-1.89
2019-01-25T17:27:26.906Z,-1.86
2019-01-25T17:29:55.094Z,-1.70
2019-01-25T17:32:23.220Z,-1.76
2019-01-25T17:34:51.748Z,-1.74
2019-01-25T17:37:19.951Z,-1.92
2019-01-25T17:39:48.377Z,-1.90
2019-01-25T17:42:16.546Z,-1.87
2019-01-25T17:44:44.670Z,-1.75
2019-01-25T17:47:13.109Z,-2.06
2019-01-25T17:49:41.800Z,-1.87
2019-01-25T17:52:09.983Z,-1.72
2019-01-25T17:54:38.319Z,-1.75
2019-01-25T17:57:06.565Z,-1.85
2019-01-25T17:59:34.630Z,-1.75
2019-01-25T18:02:03.292Z,-1.98
2019-01-25T18:04:31.603Z,-1.83
2019-01-25T18:06:59.710Z,-1.79
2019-01-25T18:09:27.761Z,-1.87
2019-01-25T18:11:56.191Z,-1.96
2019-01-25T18:14:24.589Z,-1.93
2019-01-25T18:16:53.086Z,-1.87
2019-01-25T18:19:21.367Z,-1.91
2019-01-25T18:22:08.856Z,-1.91
2019-01-25T18:24:37.363Z,-1.95
2019-01-25T18:27:05.646Z,-2.01
2019-01-25T18:29:56.072Z,-2.02
2019-01-25T18:32:24.334Z,-1.95
2019-01-25T18:34:52.675Z,-1.98
2019-01-25T18:37:20.858Z,-1.92
2019-01-25T18:39:49.302Z,-1.99
2019-01-25T18:42:17.705Z,-1.95
2019-01-25T18:44:46.009Z,-2.09
2019-01-25T18:47:14.237Z,-2.03
2019-01-25T18:49:42.774Z,-2.01
2019-01-25T18:52:11.004Z,-2.11
2019-01-25T18:54:39.356Z,-1.95
2019-01-25T18:57:07.458Z,-1.97
2019-01-25T18:59:35.583Z,-1.93
2019-01-25T19:02:03.666Z,-1.86
2019-01-25T19:04:31.844Z,-1.95
2019-01-25T19:06:59.969Z,-1.95
2019-01-25T19:09:28.393Z,-1.88
2019-01-25T19:11:56.487Z,-1.85
2019-01-25T19:14:24.729Z,-1.84
2019-01-25T19:16:52.908Z,-1.79
2019-01-25T19:19:21.026Z,-1.82
2019-01-25T19:21:49.239Z,-1.78
2019-01-25T19:24:17.763Z,-1.80
2019-01-25T19:26:46.204Z,-1.73
2019-01-25T19:29:14.553Z,-1.64
2019-01-25T19:31:42.655Z,-1.67
2019-01-25T19:34:11.158Z,-1.67
2019-01-25T19:36:39.626Z,-1.66
2019-01-25T19:39:12.270Z,-1.60
2019-01-25T19:41:40.898Z,-1.58
2019-01-25T19:44:09.371Z,-1.56
2019-01-25T19:46:38.116Z,-1.50
2019-01-25T19:49:06.568Z,-1.54
2019-01-25T19:51:35.648Z,-1.51
2019-01-25T19:54:04.244Z,-1.48
2019-01-25T19:56:33.798Z,-1.54
2019-01-25T19:59:02.866Z,-1.48
2019-01-25T20:01:31.693Z,-1.45
2019-01-25T20:03:59.900Z,-1.38
2019-01-25T20:06:28.219Z,-1.41
2019-01-25T20:08:57.175Z,-1.39
2019-01-25T20:11:26.068Z,-1.37
2019-01-25T20:13:57.215Z,-1.33
2019-01-25T20:16:27.179Z,-1.26
2019-01-25T20:18:55.801Z,-1.31
2019-01-25T20:21:24.722Z,-1.26
2019-01-25T20:23:58.733Z,-1.25
2019-01-25T20:26:27.382Z,-1.21
2019-01-25T20:28:56.042Z,-1.17
2019-01-25T20:31:29.103Z,-1.17
2019-01-25T20:33:57.839Z,-1.16
2019-01-25T20:36:26.411Z,-1.13
2019-01-25T20:38:56.506Z,-1.13
2019-01-25T20:41:25.351Z,-1.12
2019-01-25T20:43:53.682Z,-1.12
2019-01-25T20:46:24.618Z,-1.00
2019-01-25T20:48:52.694Z,-0.98
2019-01-25T20:51:21.225Z,-1.00
2019-01-25T20:53:49.404Z,-0.99
2019-01-25T20:56:18.374Z,-0.91
2019-01-25T20:58:47.073Z,-0.90
2019-01-25T21:01:15.762Z,-0.88
2019-01-25T21:03:44.371Z,-0.85
2019-01-25T21:06:13.143Z,-0.89
2019-01-25T21:08:41.751Z,-0.87
2019-01-25T21:11:10.250Z,-0.80
2019-01-25T21:13:38.871Z,-0.93
2019-01-25T21:16:07.850Z,-0.88
2019-01-25T21:18:36.930Z,-0.78
2019-01-25T21:21:05.653Z,-0.72
2019-01-25T21:23:34.172Z,-0.77
2019-01-25T21:26:02.605Z,-0.71
2019-01-25T21:28:30.804Z,-0.80
2019-01-25T21:30:59.333Z,-0.74
2019-01-25T21:33:28.287Z,-0.67
2019-01-25T21:35:57.341Z,-0.65
2019-01-25T21:38:26.405Z,-0.68
2019-01-25T21:40:54.651Z,-0.63
2019-01-25T21:43:22.998Z,-0.55
2019-01-25T21:45:52.199Z,-0.50
2019-01-25T21:48:21.040Z,-0.47
2019-01-25T21:50:49.812Z,-0.48
2019-01-25T21:53:17.956Z,-0.44
2019-01-25T21:55:46.212Z,-0.46
2019-01-25T21:58:14.411Z,-0.38
2019-01-25T22:00:42.837Z,-0.37
2019-01-25T22:03:10.995Z,-0.36
2019-01-25T22:05:39.109Z,-0.35
2019-01-25T22:08:07.277Z,-0.39
2019-01-25T22:10:38.269Z,-0.38
2019-01-25T22:13:06.745Z,-0.31
2019-01-25T22:15:34.955Z,-0.30
2019-01-25T22:18:03.251Z,-0.32
2019-01-25T22:20:31.475Z,-0.29
2019-01-25T22:22:59.664Z,-0.26
2019-01-25T22:25:27.907Z,-0.25
2019-01-25T22:27:57.511Z,-0.25
2019-01-25T22:30:25.814Z,-0.19
2019-01-25T22:32:53.860Z,-0.18
2019-01-25T22:35:22.052Z,-0.17
2019-01-25T22:37:50.227Z,-0.16
2019-01-25T22:40:20.517Z,-0.17
2019-01-25T22:42:48.635Z,-0.09
2019-01-25T22:45:18.908Z,-0.05
2019-01-25T22:47:47.061Z,-0.09
2019-01-25T22:50:18.050Z,-2.76
2019-01-25T22:52:46.068Z,0.05
2019-01-25T22:55:14.879Z,-0.06
2019-01-25T22:57:43.186Z,-0.03
2019-01-25T23:00:18.106Z,0.05
2019-01-25T23:02:46.321Z,0.07
2019-01-25T23:06:00.211Z,0.10
2019-01-25T23:08:28.200Z,0.09
2019-01-25T23:10:56.532Z,0.17
2019-01-25T23:13:24.573Z,0.22
2019-01-25T23:15:52.806Z,0.23
2019-01-25T23:18:20.962Z,0.24
2019-01-25T23:20:49.007Z,0.24
2019-01-25T23:23:17.131Z,0.24
2019-01-25T23:25:45.176Z,0.30
2019-01-25T23:28:13.452Z,0.28
2019-01-25T23:30:41.505Z,0.15
2019-01-25T23:33:09.621Z,0.29
2019-01-25T23:35:37.703Z,0.26
2019-01-25T23:38:05.805Z,-0.45
2019-01-25T23:40:33.953Z,0.37
2019-01-25T23:43:02.167Z,0.29
2019-01-25T23:45:30.306Z,0.48
2019-01-25T23:47:58.374Z,0.46
2019-01-25T23:50:26.552Z,0.48
2019-01-25T23:52:54.562Z,0.35
2019-01-25T23:55:22.602Z,0.57
2019-01-25T23:57:50.604Z,0.54
